Time,TemperatureF,DewpointF,PressureIn,WindDirection,WindDirectionDegrees,WindSpeedMPH,WindSpeedGustMPH,Humidity,HourlyPrecipIn,Conditions,Clouds,dailyrainin,SoftwareType,DateUTC
2013-11-01 05:02:00,49.2,45.0,29.87,WNW,299,0.0,0.0,86,0.00,,,0.00,weatherlink.com 1.10,2013-11-01 10:02:00,
2013-11-01 05:17:00,48.9,45.0,29.87,WNW,299,0.0,0.0,86,0.00,,,0.00,weatherlink.com 1.10,2013-11-01 10:17:00,
2013-11-01 05:32:00,48.6,45.0,29.88,WNW,299,0.0,0.0,86,0.00,,,0.00,weatherlink.com 1.10,2013-11-01 10:32:00,
2013-11-01 05:47:00,48.3,44.0,29.88,WNW,299,0.0,0.0,86,0.00,,,0.00,weatherlink.com 1.10,2013-11-01 10:47:00,
2013-11-01 06:02:00,47.9,44.0,29.88,WNW,299,0.0,0.0,86,0.00,,,0.00,weatherlink.com 1.10,2013-11-01 11:02:00,
2013-11-01 06:32:00,47.7,44.0,29.89,WNW,299,0.0,0.0,86,0.00,,,0.00,weatherlink.com 1.10,2013-11-01 11:32:00,
2013-11-01 06:47:00,47.5,44.0,29.88,WNW,299,0.0,0.0,86,0.00,,,0.00,weatherlink.com 1.10,2013-11-01 11:47:00,
2013-11-01 07:02:00,47.5,44.0,29.88,WNW,299,0.0,0.0,86,0.00,,,0.00,weatherlink.com 1.10,2013-11-01 12:02:00,
2013-11-01 07:17:00,47.4,43.0,29.89,WNW,299,0.0,0.0,86,0.00,,,0.00,weatherlink.com 1.10,2013-11-01 12:17:00,
2013-11-01 07:33:00,47.2,43.0,29.90,WNW,299,0.0,0.0,86,0.00,,,0.00,weatherlink.com 1.10,2013-11-01 12:33:00,
2013-11-01 07:48:00,47.1,43.0,29.90,WNW,299,0.0,0.0,86,0.00,,,0.00,weatherlink.com 1.10,2013-11-01 12:48:00,
2013-11-01 08:03:00,47.1,43.0,29.90,WNW,299,0.0,0.0,86,0.00,,,0.00,weatherlink.com 1.10,2013-11-01 13:03:00,
2013-11-01 08:18:00,47.4,43.0,29.91,WNW,299,0.0,0.0,85,0.00,,,0.00,weatherlink.com 1.10,2013-11-01 13:18:00,
2013-11-01 08:33:00,47.9,44.0,29.91,WNW,299,0.0,0.0,85,0.00,,,0.00,weatherlink.com 1.10,2013-11-01 13:33:00,
2013-11-01 08:48:00,48.8,45.0,29.91,WNW,299,0.0,0.0,85,0.00,,,0.00,weatherlink.com 1.10,2013-11-01 13:48:00,
2013-11-01 09:03:00,49.9,46.0,29.92,WNW,299,0.0,0.0,85,0.00,,,0.00,weatherlink.com 1.10,2013-11-01 14:03:00,
2013-11-01 09:18:00,51.9,47.0,29.93,WNW,299,0.0,0.0,84,0.00,,,0.00,weatherlink.com 1.10,2013-11-01 14:18:00,
2013-11-01 09:33:00,53.9,49.0,29.93,WNW,299,0.0,0.0,83,0.00,,,0.00,weatherlink.com 1.10,2013-11-01 14:33:00,
2013-11-01 09:48:00,56.6,52.0,29.94,WNW,299,0.0,0.0,83,0.00,,,0.00,weatherlink.com 1.10,2013-11-01 14:48:00,
2013-11-01 10:18:00,61.1,56.0,29.94,SW,236,0.0,3.0,82,0.00,,,0.00,weatherlink.com 1.10,2013-11-01 15:18:00,
2013-11-01 10:33:00,63.4,58.0,29.94,SSE,168,0.0,2.0,82,0.00,,,0.00,weatherlink.com 1.10,2013-11-01 15:33:00,
2013-11-01 10:48:00,65.7,62.0,29.94,South,180,0.0,2.0,88,0.00,,,0.00,weatherlink.com 1.10,2013-11-01 15:48:00,
2013-11-01 11:04:00,68.1,59.0,29.94,ENE,69,0.0,1.0,72,0.00,,,0.00,weatherlink.com 1.10,2013-11-01 16:04:00,
2013-11-01 11:18:00,69.4,60.0,29.94,NNW,339,0.0,1.0,72,0.00,,,0.00,weatherlink.com 1.10,2013-11-01 16:18:00,
2013-11-01 11:33:00,69.9,58.0,29.94,SE,141,0.0,3.0,65,0.00,,,0.00,weatherlink.com 1.10,2013-11-01 16:33:00,
2013-11-01 11:48:00,69.9,56.0,29.94,South,181,0.0,1.0,62,0.00,,,0.00,weatherlink.com 1.10,2013-11-01 16:48:00,
2013-11-01 12:03:00,69.0,56.0,29.93,WSW,257,0.0,3.0,64,0.00,,,0.00,weatherlink.com 1.10,2013-11-01 17:03:00,
2013-11-01 12:18:00,71.2,56.0,29.93,SSW,196,0.0,1.0,60,0.00,,,0.00,weatherlink.com 1.10,2013-11-01 17:18:00,
2013-11-01 12:33:00,71.6,54.0,29.92,SE,138,0.0,1.0,54,0.00,,,0.00,weatherlink.com 1.10,2013-11-01 17:33:00,
2013-11-01 12:48:00,71.7,55.0,29.91,SSE,149,0.0,1.0,56,0.00,,,0.00,weatherlink.com 1.10,2013-11-01 17:48:00,
2013-11-01 13:03:00,70.9,56.0,29.91,West,261,0.0,3.0,60,0.00,,,0.00,weatherlink.com 1.10,2013-11-01 18:03:00,
2013-11-01 13:18:00,71.7,54.0,29.90,South,186,0.0,3.0,53,0.00,,,0.00,weatherlink.com 1.10,2013-11-01 18:18:00,
2013-11-01 13:33:00,72.2,55.0,29.90,SE,146,0.0,1.0,56,0.00,,,0.00,weatherlink.com 1.10,2013-11-01 18:33:00,
2013-11-01 13:48:00,72.4,57.0,29.89,East,90,0.0,9.0,58,0.00,,,0.00,weatherlink.com 1.10,2013-11-01 18:48:00,
2013-11-01 14:03:00,72.8,57.0,29.88,South,181,0.0,1.0,57,0.00,,,0.00,weatherlink.com 1.10,2013-11-01 19:03:00,
2013-11-01 14:18:00,73.4,56.0,29.87,South,189,0.0,1.0,54,0.00,,,0.00,weatherlink.com 1.10,2013-11-01 19:18:00,
2013-11-01 14:33:00,73.4,56.0,29.87,SSE,166,0.0,3.0,54,0.00,,,0.00,weatherlink.com 1.10,2013-11-01 19:33:00,
2013-11-01 14:49:00,73.6,55.0,29.86,SE,139,0.0,3.0,53,0.00,,,0.00,weatherlink.com 1.10,2013-11-01 19:49:00,
2013-11-01 15:04:00,74.3,57.0,29.86,SSE,153,0.0,1.0,55,0.00,,,0.00,weatherlink.com 1.10,2013-11-01 20:04:00,
2013-11-01 15:19:00,74.1,55.0,29.85,SSE,159,0.0,3.0,52,0.00,,,0.00,weatherlink.com 1.10,2013-11-01 20:19:00,
2013-11-01 15:34:00,74.3,58.0,29.85,South,188,0.0,1.0,58,0.00,,,0.00,weatherlink.com 1.10,2013-11-01 20:34:00,
2013-11-01 15:49:00,74.4,58.0,29.85,South,188,0.0,1.0,57,0.00,,,0.00,weatherlink.com 1.10,2013-11-01 20:49:00,
2013-11-01 16:19:00,76.0,56.0,29.85,South,188,0.0,1.0,51,0.00,,,0.00,weatherlink.com 1.10,2013-11-01 21:19:00,
2013-11-01 16:34:00,75.1,56.0,29.85,South,188,0.0,1.0,52,0.00,,,0.00,weatherlink.com 1.10,2013-11-01 21:34:00,
2013-11-01 16:49:00,73.8,57.0,29.84,South,188,0.0,1.0,57,0.00,,,0.00,weatherlink.com 1.10,2013-11-01 21:49:00,
2013-11-01 17:04:00,71.9,59.0,29.84,South,188,0.0,1.0,63,0.00,,,0.00,weatherlink.com 1.10,2013-11-01 22:04:00,
2013-11-01 17:19:00,70.6,60.0,29.84,South,188,0.0,0.0,68,0.00,,,0.00,weatherlink.com 1.10,2013-11-01 22:19:00,
2013-11-01 17:34:00,69.4,59.0,29.84,South,188,0.0,0.0,70,0.00,,,0.00,weatherlink.com 1.10,2013-11-01 22:34:00,
2013-11-01 17:49:00,68.3,60.0,29.85,South,188,0.0,0.0,74,0.00,,,0.00,weatherlink.com 1.10,2013-11-01 22:49:00,
2013-11-01 18:04:00,67.1,60.0,29.85,South,188,0.0,0.0,78,0.00,,,0.00,weatherlink.com 1.10,2013-11-01 23:04:00,
2013-11-01 18:19:00,66.0,61.0,29.86,South,188,0.0,0.0,83,0.00,,,0.00,weatherlink.com 1.10,2013-11-01 23:19:00,
2013-11-01 18:34:00,64.4,60.0,29.86,South,188,0.0,0.0,86,0.00,,,0.00,weatherlink.com 1.10,2013-11-01 23:34:00,
2013-11-01 18:49:00,62.9,59.0,29.88,South,188,0.0,0.0,87,0.00,,,0.00,weatherlink.com 1.10,2013-11-01 23:49:00,
2013-11-01 19:04:00,62.1,59.0,29.88,South,188,0.0,0.0,88,0.00,,,0.00,weatherlink.com 1.10,2013-11-02 00:04:00,
2013-11-01 19:19:00,61.4,58.0,29.89,South,188,0.0,0.0,88,0.00,,,0.00,weatherlink.com 1.10,2013-11-02 00:19:00,
2013-11-01 19:34:00,61.0,58.0,29.90,South,188,0.0,0.0,88,0.00,,,0.00,weatherlink.com 1.10,2013-11-02 00:34:00,
2013-11-01 19:49:00,60.4,57.0,29.90,South,188,0.0,0.0,88,0.00,,,0.00,weatherlink.com 1.10,2013-11-02 00:49:00,
2013-11-01 20:04:00,60.0,57.0,29.90,South,188,0.0,0.0,88,0.00,,,0.00,weatherlink.com 1.10,2013-11-02 01:04:00,
2013-11-01 20:19:00,59.5,56.0,29.91,South,188,0.0,0.0,88,0.00,,,0.00,weatherlink.com 1.10,2013-11-02 01:19:00,
2013-11-01 20:34:00,59.0,56.0,29.91,South,188,0.0,0.0,88,0.00,,,0.00,weatherlink.com 1.10,2013-11-02 01:34:00,
2013-11-01 20:49:00,59.0,56.0,29.92,South,188,0.0,0.0,88,0.00,,,0.00,weatherlink.com 1.10,2013-11-02 01:49:00,
2013-11-01 21:04:00,59.0,55.0,29.92,South,188,0.0,0.0,87,0.00,,,0.00,weatherlink.com 1.10,2013-11-02 02:04:00,
2013-11-01 21:19:00,58.7,55.0,29.91,South,188,0.0,0.0,87,0.00,,,0.00,weatherlink.com 1.10,2013-11-02 02:19:00,
2013-11-01 21:34:00,58.4,55.0,29.92,South,188,0.0,0.0,87,0.00,,,0.00,weatherlink.com 1.10,2013-11-02 02:34:00,
2013-11-01 21:49:00,58.3,55.0,29.92,South,188,0.0,0.0,87,0.00,,,0.00,weatherlink.com 1.10,2013-11-02 02:49:00,
2013-11-01 22:04:00,58.1,54.0,29.92,South,188,0.0,0.0,87,0.00,,,0.00,weatherlink.com 1.10,2013-11-02 03:04:00,
2013-11-01 22:19:00,58.6,55.0,29.93,South,188,0.0,0.0,86,0.00,,,0.00,weatherlink.com 1.10,2013-11-02 03:19:00,
2013-11-01 22:34:00,59.0,55.0,29.95,South,189,0.0,0.0,86,0.00,,,0.00,weatherlink.com 1.10,2013-11-02 03:34:00,
2013-11-01 22:49:00,59.6,56.0,29.99,WNW,283,1.0,14.0,86,0.04,,,0.04,weatherlink.com 1.10,2013-11-02 03:49:00,
2013-11-01 23:04:00,59.4,56.0,29.98,SSW,197,0.0,1.0,87,0.06,,,0.06,weatherlink.com 1.10,2013-11-02 04:04:00,
2013-11-01 23:19:00,59.5,56.0,30.00,WSW,256,0.0,5.0,87,0.06,,,0.06,weatherlink.com 1.10,2013-11-02 04:19:00,
2013-11-01 23:34:00,59.0,55.0,30.00,West,274,3.0,8.0,87,0.06,,,0.06,weatherlink.com 1.10,2013-11-02 04:34:00,
2013-11-01 23:49:00,59.0,55.0,30.00,WSW,253,0.0,3.0,87,0.02,,,0.06,weatherlink.com 1.10,2013-11-02 04:49:00,